Regina International Airport
CYQR : now visible

Airfield :











YOU CAN JOIN US ON...

 
LOGIN :

Register | Disclaimer

   EN    FR    IT 

 









Legend :    VFR   Marginal VFR   IFR   Intensive IFR   Very Intensive IFR
Visi :
Ceiling :
>= 8 km
>= 3000ft
5 to 8 km
1000 to 3000 ft
1500m to 5 km
500 to 1000 ft
800 to 1500m
200 to 500 ft
< 800m
< 200 ft
Symbols :   Thunderstorms  Fog  Heavy snow  Heavy precipitations  Wind > 20 kt






- Airport Elevation : 1894 ft
- IATA code : YQR


CYQR - Regina International

CURRENT METAR :
  • 221100Z 17007KT 15SM SKC M02/M08 A2966 RMK SLP064

EXPIRED METARs :
  • 221000Z 19010KT 15SM SKC M01/M07 A2967 RMK SLP066
  • 220900Z 19010KT 15SM SKC M00/M07 A2968 RMK SLP071

TAF TAF CYQR
Valid from the 22 at 06:00 until the 23 at 06:00 UTC


220557Z 2206/2306 20010KT WS005/20030KT P6SM SKC
FM221800 30012KT P6SM FEW100 SCT240
BECMG 2219/2221 36025G35KT
FM222100 36025G35KT P6SM SCT020 BKN040
TEMPO 2221/2302 3SM -SNRA BR OVC020
FM230200 01015G25KT P6SM SCT020 BKN040
TEMPO 2302/2306 BKN020 RMK NXT FCST BY 221200Z
CZWG FIR / North America



MET'MAP, your aeronautical weather chart ! - Copyright ORBIFLY December 2007 - Disclaimer

ORBIFLY MET'MAP TEAM :

Programming & Development : Alexandra Zaïnal
Concept & original design : Baudouin d'Aumeries
Assistance for programming : Marc-Olivier Méhu
Technical & hardware support : Manuel Goepfert

Contact : metmap@orbifly.com




SOURCES & CREDITS :

   NOAA       Earth
Advisory